Izki — V7XV2 — position and weather

sailwx.info

Track history (hours):
 
Tides and Currents Weather Stations Pressure Air Temp Water Temp Dewpoint Dewpoint Depression Visibility Wind Speed Wind Dir Waves Ship Positions

Izki

Last reported at 2014-Aug-30 17:29 UTC. Time now 2014-Nov-01 09:32 UTC.
Position N 27°53' W 115°59'.
Warning: this ship's position is months out of date.

Length 333 m; draft 11 m.

Type: Tanker. MMSI: 538004578.

Date/timePositionNaut miles runAvg speedWind from/ knotsBaromVisibWave heightAir tempDewpointWater temp
2014-Aug-30 17:29N 27°53' W 115°59'10610.6
2014-Aug-30 07:31N 29°30' W 116°47'3210.3
2014-Aug-30 04:25N 29°60' W 117°01'1010.3
2014-Aug-30 03:29N 30°09' W 117°05'2310.7
2014-Aug-30 01:18N 30°30' W 117°15'811.3
2014-Aug-30 00:33N 30°38' W 117°20'1111.4
2014-Aug-29 23:33N 30°48' W 117°25'1111.1
2014-Aug-29 22:33N 30°59' W 117°30'1111.0
2014-Aug-29 21:33N 31°09' W 117°35'1111.0
2014-Aug-29 20:33N 31°19' W 117°40'1110.6
2014-Aug-29 19:33N 31°29' W 117°45'1110.6
2014-Aug-29 18:33N 31°38' W 117°50'1110.7
2014-Aug-29 17:33N 31°48' W 117°54'1010.4
2014-Aug-29 16:33N 31°58' W 117°59'1010.0
2014-Aug-29 15:34N 32°07' W 118°04'1010.0
2014-Aug-29 14:33N 32°16' W 118°08'1010.1
2014-Aug-29 13:33N 32°26' W 118°13'10 9.8
2014-Aug-29 12:33N 32°35' W 118°13'1010.0
2014-Aug-29 11:33N 32°45' W 118°11'1010.2
2014-Aug-29 10:33N 32°55' W 118°09'1010.4
2014-Aug-29 09:33N 33°06' W 118°07'10 9.9
2014-Aug-29 08:34N 33°15' W 118°05'10 9.9
2014-Aug-29 07:33N 33°25' W 118°09'1110.5
2014-Aug-29 06:33N 33°35' W 118°13'9 8.6
2014-Aug-29 05:33N 33°43' W 118°11'1 1.2
2014-Aug-29 04:32N 33°44' W 118°12'0 0.0
2014-Aug-29 03:32N 33°44' W 118°12'0 0.1
2014-Aug-29 02:32N 33°44' W 118°12'0 0.0
2014-Aug-29 01:29N 33°44' W 118°12'0 0.1
2014-Aug-29 00:32N 33°44' W 118°12'0 0.0
2014-Aug-28 23:29N 33°44' W 118°12'0 0.1
2014-Aug-28 22:32N 33°44' W 118°12'0 0.1
2014-Aug-28 21:32N 33°44' W 118°12'0 0.0
2014-Aug-28 20:28N 33°44' W 118°12'0 0.1
2014-Aug-28 19:32N 33°44' W 118°12'0 0.1
2014-Aug-28 18:32N 33°44' W 118°12'0 0.1
2014-Aug-28 17:10N 33°44' W 118°12'0 0.0
2014-Aug-28 16:31N 33°44' W 118°12'0 0.1
2014-Aug-28 15:31N 33°44' W 118°12'0 0.2
2014-Aug-28 14:31N 33°44' W 118°12'0 0.0
2014-Aug-28 13:31N 33°44' W 118°12'0 0.1
2014-Aug-28 12:31N 33°44' W 118°12'0 0.0
2014-Aug-28 11:28N 33°44' W 118°12'0 0.1
2014-Aug-28 10:31N 33°44' W 118°12'0 0.0
2014-Aug-28 09:31N 33°44' W 118°12'0 0.1
2014-Aug-28 08:31N 33°44' W 118°12'0 0.0
2014-Aug-28 07:25N 33°44' W 118°12'0 0.1
2014-Aug-28 06:31N 33°44' W 118°12'0 0.1
2014-Aug-28 05:31N 33°44' W 118°12'0 0.1
2014-Aug-28 04:31N 33°44' W 118°12'0 0.1
2014-Aug-28 03:31N 33°44' W 118°12'1 0.7
2014-Aug-28 02:33N 33°44' W 118°13'1 0.5
2014-Aug-28 00:32N 33°45' W 118°13'0 0.0
2014-Aug-27 23:32N 33°45' W 118°13'0 0.0
2014-Aug-27 22:26N 33°45' W 118°13'0 0.0
2014-Aug-27 21:29N 33°45' W 118°13'0 0.0
2014-Aug-27 20:32N 33°45' W 118°13'0 0.0
2014-Aug-27 19:29N 33°45' W 118°13'0 0.0
2014-Aug-27 18:32N 33°45' W 118°13'0 0.0
2014-Aug-27 17:32N 33°45' W 118°13'0 0.0
2014-Aug-27 16:29N 33°45' W 118°13'0 0.0
2014-Aug-27 15:29N 33°45' W 118°13'0 0.0
2014-Aug-27 14:31N 33°45' W 118°13'0 0.0
2014-Aug-27 13:32N 33°45' W 118°13'0 0.0
2014-Aug-27 12:31N 33°45' W 118°13'0 0.0
2014-Aug-27 11:31N 33°45' W 118°13'0 0.0
2014-Aug-27 10:31N 33°45' W 118°13'0 0.0
2014-Aug-27 09:28N 33°45' W 118°13'0 0.0
2014-Aug-27 08:31N 33°45' W 118°13'0 0.0
2014-Aug-27 07:31N 33°45' W 118°13'0 0.0
2014-Aug-27 06:25N 33°45' W 118°13'0 0.0
2014-Aug-27 05:31N 33°45' W 118°13'0 0.0
2014-Aug-27 04:25N 33°45' W 118°13'0 0.0
2014-Aug-27 03:31N 33°45' W 118°13'0 0.0
2014-Aug-27 02:31N 33°45' W 118°13'0 0.0
2014-Aug-27 01:31N 33°45' W 118°13'0 0.0
2014-Aug-27 00:28N 33°45' W 118°13'0 0.0
2014-Aug-26 22:31N 33°45' W 118°13'0 0.1
2014-Aug-26 21:33N 33°45' W 118°13'4 4.1
2014-Aug-26 20:33N 33°42' W 118°10'1 1.4
2014-Aug-26 19:31N 33°41' W 118°09'0 0.0
2014-Aug-26 18:31N 33°41' W 118°09'0 0.0
2014-Aug-26 17:31N 33°41' W 118°09'0 0.1
2014-Aug-26 16:31N 33°41' W 118°09'0 0.0
2014-Aug-26 15:13N 33°41' W 118°09'0 0.0
2014-Aug-26 14:25N 33°41' W 118°09'0 0.0
2014-Aug-26 13:07N 33°41' W 118°09'0 0.1
2014-Aug-26 12:28N 33°41' W 118°09'0 0.0
2014-Aug-26 11:24N 33°41' W 118°09'0 0.0
2014-Aug-26 08:30N 33°41' W 118°09'0 0.1
2014-Aug-26 07:24N 33°41' W 118°09'0 0.0
2014-Aug-26 06:18N 33°41' W 118°09'0 0.0
2014-Aug-26 05:30N 33°41' W 118°09'0 0.0
2014-Aug-26 04:33N 33°41' W 118°09'0 0.0
2014-Aug-26 03:33N 33°41' W 118°09'0 0.0
2014-Aug-26 02:30N 33°41' W 118°09'0 0.0
2014-Aug-26 01:33N 33°41' W 118°09'0 0.0
2014-Aug-26 00:30N 33°41' W 118°09'0 0.0
2014-Aug-25 23:15N 33°41' W 118°09'0 0.0
2014-Aug-25 22:33N 33°41' W 118°09'0 0.0
2014-Aug-25 21:33N 33°41' W 118°09'0 0.0
2014-Aug-25 20:33N 33°41' W 118°09'0 0.0
2014-Aug-25 19:30N 33°41' W 118°09'0 0.0
2014-Aug-25 18:24N 33°41' W 118°09'0 0.1
2014-Aug-25 17:24N 33°41' W 118°09'0 0.1
2014-Aug-25 16:24N 33°41' W 118°09'0 0.0
2014-Aug-25 15:06N 33°41' W 118°09'0 0.0
2014-Aug-25 14:24N 33°41' W 118°09'0 0.0
2014-Aug-25 12:33N 33°41' W 118°09'0 0.0
2014-Aug-25 11:21N 33°41' W 118°09'0 0.1
2014-Aug-25 10:30N 33°41' W 118°09'0 0.1
2014-Aug-25 09:33N 33°41' W 118°09'0 0.0
2014-Aug-25 05:24N 33°41' W 118°09'0 0.0
2014-Aug-25 04:30N 33°41' W 118°09'0 0.0
2014-Aug-25 03:32N 33°41' W 118°09'0 0.0
2014-Aug-25 02:29N 33°41' W 118°09'0 0.0
2014-Aug-25 01:29N 33°41' W 118°09'0 0.0
2014-Aug-25 00:29N 33°41' W 118°09'0 0.0
2014-Aug-24 23:32N 33°41' W 118°09'0 0.1
2014-Aug-24 22:29N 33°41' W 118°09'0 0.0
2014-Aug-24 21:29N 33°41' W 118°09'0 0.1
2014-Aug-24 20:29N 33°41' W 118°09'0 0.0
2014-Aug-24 19:23N 33°41' W 118°09'0 0.1
2014-Aug-24 18:32N 33°41' W 118°09'0 0.2
2014-Aug-24 17:29N 33°41' W 118°09'0 0.2
2014-Aug-24 16:32N 33°41' W 118°09'1 1.3
2014-Aug-24 15:33N 33°40' W 118°09'6 5.7
2014-Aug-24 14:33N 33°34' W 118°09'8 7.9
2014-Aug-24 13:33N 33°27' W 118°06'8 7.8
2014-Aug-24 12:33N 33°20' W 118°03'9 9.2
2014-Aug-24 11:33N 33°11' W 117°58'9 8.7
2014-Aug-24 10:33N 33°02' W 117°58'9 9.0
2014-Aug-24 09:33N 32°54' W 118°03'9 9.2
2014-Aug-24 08:33N 32°46' W 118°08'9 9.3
2014-Aug-24 07:33N 32°38' W 118°14'9 9.2
2014-Aug-24 06:33N 32°30' W 118°19'9 9.4
2014-Aug-24 05:33N 32°22' W 118°24'9 9.5
2014-Aug-24 04:33N 32°14' W 118°30'9 9.3
2014-Aug-24 03:33N 32°06' W 118°36'10 9.5
2014-Aug-24 02:33N 31°58' W 118°41'9 9.4
2014-Aug-24 01:33N 31°49' W 118°47'1110.7
2014-Aug-24 00:33N 31°40' W 118°53'1110.7
2014-Aug-23 23:33N 31°31' W 119°00'2 1.8
2014-Aug-23 22:33N 31°30' W 119°01'1 1.1
2014-Aug-23 21:33N 31°29' W 119°01'1 1.2
2014-Aug-23 20:33N 31°27' W 119°02'1 1.0
2014-Aug-23 19:33N 31°27' W 119°02'23 1.4
2014-Aug-23 03:33N 31°46' W 119°16'2 1.6
2014-Aug-23 02:33N 31°48' W 119°17'1 1.4
2014-Aug-23 01:33N 31°49' W 119°18'1 1.2
2014-Aug-23 00:33N 31°50' W 119°19'1 1.1
2014-Aug-22 23:33N 31°51' W 119°20'3 3.2
2014-Aug-22 22:33N 31°54' W 119°21'5 5.2
2014-Aug-22 21:33N 31°58' W 119°24'4 3.9
2014-Aug-22 20:33N 32°02' W 119°25'1 0.9
2014-Aug-22 19:33N 32°02' W 119°26'1 1.0
2014-Aug-22 18:32N 32°01' W 119°26'1 0.6
2014-Aug-22 17:33N 32°00' W 119°25'1 0.9
2014-Aug-22 16:33N 31°60' W 119°26'1 1.0
2014-Aug-22 15:27N 31°58' W 119°25'0 0.4
2014-Aug-22 14:33N 31°58' W 119°25'0 0.3
2014-Aug-22 13:33N 31°58' W 119°25'0 0.2
2014-Aug-22 12:33N 31°58' W 119°25'0 0.2
2014-Aug-22 11:33N 31°58' W 119°25'0 0.2
2014-Aug-22 10:33N 31°58' W 119°25'1 0.5
2014-Aug-22 09:14N 31°58' W 119°25'0 0.4
2014-Aug-22 08:31N 31°58' W 119°26'0 0.5
2014-Aug-22 07:33N 31°58' W 119°26'1 0.5
2014-Aug-22 06:33N 31°59' W 119°27'0 0.3
2014-Aug-22 05:32N 31°59' W 119°27'0 0.4
2014-Aug-22 04:31N 31°59' W 119°28'1 0.5
2014-Aug-22 03:33N 31°59' W 119°28'0 0.5
2014-Aug-22 02:30N 31°59' W 119°29'1 0.5
2014-Aug-22 00:25N 31°60' W 119°30'1 0.6
2014-Aug-21 23:18N 31°60' W 119°31'8 2.6
2014-Aug-21 20:23N 31°57' W 119°22'1211.6
2014-Aug-21 19:21N 31°52' W 119°10'1 0.7
2014-Aug-21 17:30N 31°52' W 119°08'0 0.2
2014-Aug-21 16:14N 31°51' W 119°08'0 0.1
2014-Aug-21 15:13N 31°51' W 119°08'0 0.2
2014-Aug-21 14:33N 31°51' W 119°08'3 0.2
2014-Aug-21 00:18N 31°52' W 119°12'  
Track history (hours):
 
Tides and Currents Weather Stations Pressure Air Temp Water Temp Dewpoint Dewpoint Depression Visibility Wind Speed Wind Dir Waves Ship Positions

Izki

Last reported at 2014-Aug-30 17:29 UTC. Time now 2014-Nov-01 09:32 UTC.
Position N 27°53' W 115°59'.
Warning: this ship's position is months out of date.

Length 333 m; draft 11 m.

Type: Tanker. MMSI: 538004578.

Date/timePositionNaut miles runAvg speedWind from/ knotsBaromVisibWave heightAir tempDewpointWater temp
2014-Aug-30 17:29N 27°53' W 115°59'10610.6
2014-Aug-30 07:31N 29°30' W 116°47'3210.3
2014-Aug-30 04:25N 29°60' W 117°01'1010.3
2014-Aug-30 03:29N 30°09' W 117°05'2310.7
2014-Aug-30 01:18N 30°30' W 117°15'811.3
2014-Aug-30 00:33N 30°38' W 117°20'1111.4
2014-Aug-29 23:33N 30°48' W 117°25'1111.1
2014-Aug-29 22:33N 30°59' W 117°30'1111.0
2014-Aug-29 21:33N 31°09' W 117°35'1111.0
2014-Aug-29 20:33N 31°19' W 117°40'1110.6
2014-Aug-29 19:33N 31°29' W 117°45'1110.6
2014-Aug-29 18:33N 31°38' W 117°50'1110.7
2014-Aug-29 17:33N 31°48' W 117°54'1010.4
2014-Aug-29 16:33N 31°58' W 117°59'1010.0
2014-Aug-29 15:34N 32°07' W 118°04'1010.0
2014-Aug-29 14:33N 32°16' W 118°08'1010.1
2014-Aug-29 13:33N 32°26' W 118°13'10 9.8
2014-Aug-29 12:33N 32°35' W 118°13'1010.0
2014-Aug-29 11:33N 32°45' W 118°11'1010.2
2014-Aug-29 10:33N 32°55' W 118°09'1010.4
2014-Aug-29 09:33N 33°06' W 118°07'10 9.9
2014-Aug-29 08:34N 33°15' W 118°05'10 9.9
2014-Aug-29 07:33N 33°25' W 118°09'1110.5
2014-Aug-29 06:33N 33°35' W 118°13'9 8.6
2014-Aug-29 05:33N 33°43' W 118°11'1 1.2
2014-Aug-29 04:32N 33°44' W 118°12'0 0.0
2014-Aug-29 03:32N 33°44' W 118°12'0 0.1
2014-Aug-29 02:32N 33°44' W 118°12'0 0.0
2014-Aug-29 01:29N 33°44' W 118°12'0 0.1
2014-Aug-29 00:32N 33°44' W 118°12'0 0.0
2014-Aug-28 23:29N 33°44' W 118°12'0 0.1
2014-Aug-28 22:32N 33°44' W 118°12'0 0.1
2014-Aug-28 21:32N 33°44' W 118°12'0 0.0
2014-Aug-28 20:28N 33°44' W 118°12'0 0.1
2014-Aug-28 19:32N 33°44' W 118°12'0 0.1
2014-Aug-28 18:32N 33°44' W 118°12'0 0.1
2014-Aug-28 17:10N 33°44' W 118°12'0 0.0
2014-Aug-28 16:31N 33°44' W 118°12'0 0.1
2014-Aug-28 15:31N 33°44' W 118°12'0 0.2
2014-Aug-28 14:31N 33°44' W 118°12'0 0.0
2014-Aug-28 13:31N 33°44' W 118°12'0 0.1
2014-Aug-28 12:31N 33°44' W 118°12'0 0.0
2014-Aug-28 11:28N 33°44' W 118°12'0 0.1
2014-Aug-28 10:31N 33°44' W 118°12'0 0.0
2014-Aug-28 09:31N 33°44' W 118°12'0 0.1
2014-Aug-28 08:31N 33°44' W 118°12'0 0.0
2014-Aug-28 07:25N 33°44' W 118°12'0 0.1
2014-Aug-28 06:31N 33°44' W 118°12'0 0.1
2014-Aug-28 05:31N 33°44' W 118°12'0 0.1
2014-Aug-28 04:31N 33°44' W 118°12'0 0.1
2014-Aug-28 03:31N 33°44' W 118°12'1 0.7
2014-Aug-28 02:33N 33°44' W 118°13'1 0.5
2014-Aug-28 00:32N 33°45' W 118°13'0 0.0
2014-Aug-27 23:32N 33°45' W 118°13'0 0.0
2014-Aug-27 22:26N 33°45' W 118°13'0 0.0
2014-Aug-27 21:29N 33°45' W 118°13'0 0.0
2014-Aug-27 20:32N 33°45' W 118°13'0 0.0
2014-Aug-27 19:29N 33°45' W 118°13'0 0.0
2014-Aug-27 18:32N 33°45' W 118°13'0 0.0
2014-Aug-27 17:32N 33°45' W 118°13'0 0.0
2014-Aug-27 16:29N 33°45' W 118°13'0 0.0
2014-Aug-27 15:29N 33°45' W 118°13'0 0.0
2014-Aug-27 14:31N 33°45' W 118°13'0 0.0
2014-Aug-27 13:32N 33°45' W 118°13'0 0.0
2014-Aug-27 12:31N 33°45' W 118°13'0 0.0
2014-Aug-27 11:31N 33°45' W 118°13'0 0.0
2014-Aug-27 10:31N 33°45' W 118°13'0 0.0
2014-Aug-27 09:28N 33°45' W 118°13'0 0.0
2014-Aug-27 08:31N 33°45' W 118°13'0 0.0
2014-Aug-27 07:31N 33°45' W 118°13'0 0.0
2014-Aug-27 06:25N 33°45' W 118°13'0 0.0
2014-Aug-27 05:31N 33°45' W 118°13'0 0.0
2014-Aug-27 04:25N 33°45' W 118°13'0 0.0
2014-Aug-27 03:31N 33°45' W 118°13'0 0.0
2014-Aug-27 02:31N 33°45' W 118°13'0 0.0
2014-Aug-27 01:31N 33°45' W 118°13'0 0.0
2014-Aug-27 00:28N 33°45' W 118°13'0 0.0
2014-Aug-26 22:31N 33°45' W 118°13'0 0.1
2014-Aug-26 21:33N 33°45' W 118°13'4 4.1
2014-Aug-26 20:33N 33°42' W 118°10'1 1.4
2014-Aug-26 19:31N 33°41' W 118°09'0 0.0
2014-Aug-26 18:31N 33°41' W 118°09'0 0.0
2014-Aug-26 17:31N 33°41' W 118°09'0 0.1
2014-Aug-26 16:31N 33°41' W 118°09'0 0.0
2014-Aug-26 15:13N 33°41' W 118°09'0 0.0
2014-Aug-26 14:25N 33°41' W 118°09'0 0.0
2014-Aug-26 13:07N 33°41' W 118°09'0 0.1
2014-Aug-26 12:28N 33°41' W 118°09'0 0.0
2014-Aug-26 11:24N 33°41' W 118°09'0 0.0
2014-Aug-26 08:30N 33°41' W 118°09'0 0.1
2014-Aug-26 07:24N 33°41' W 118°09'0 0.0
2014-Aug-26 06:18N 33°41' W 118°09'0 0.0
2014-Aug-26 05:30N 33°41' W 118°09'0 0.0
2014-Aug-26 04:33N 33°41' W 118°09'0 0.0
2014-Aug-26 03:33N 33°41' W 118°09'0 0.0
2014-Aug-26 02:30N 33°41' W 118°09'0 0.0
2014-Aug-26 01:33N 33°41' W 118°09'0 0.0
2014-Aug-26 00:30N 33°41' W 118°09'0 0.0
2014-Aug-25 23:15N 33°41' W 118°09'0 0.0
2014-Aug-25 22:33N 33°41' W 118°09'0 0.0
2014-Aug-25 21:33N 33°41' W 118°09'0 0.0
2014-Aug-25 20:33N 33°41' W 118°09'0 0.0
2014-Aug-25 19:30N 33°41' W 118°09'0 0.0
2014-Aug-25 18:24N 33°41' W 118°09'0 0.1
2014-Aug-25 17:24N 33°41' W 118°09'0 0.1
2014-Aug-25 16:24N 33°41' W 118°09'0 0.0
2014-Aug-25 15:06N 33°41' W 118°09'0 0.0
2014-Aug-25 14:24N 33°41' W 118°09'0 0.0
2014-Aug-25 12:33N 33°41' W 118°09'0 0.0
2014-Aug-25 11:21N 33°41' W 118°09'0 0.1
2014-Aug-25 10:30N 33°41' W 118°09'0 0.1
2014-Aug-25 09:33N 33°41' W 118°09'0 0.0
2014-Aug-25 05:24N 33°41' W 118°09'0 0.0
2014-Aug-25 04:30N 33°41' W 118°09'0 0.0
2014-Aug-25 03:32N 33°41' W 118°09'0 0.0
2014-Aug-25 02:29N 33°41' W 118°09'0 0.0
2014-Aug-25 01:29N 33°41' W 118°09'0 0.0
2014-Aug-25 00:29N 33°41' W 118°09'0 0.0
2014-Aug-24 23:32N 33°41' W 118°09'0 0.1
2014-Aug-24 22:29N 33°41' W 118°09'0 0.0
2014-Aug-24 21:29N 33°41' W 118°09'0 0.1
2014-Aug-24 20:29N 33°41' W 118°09'0 0.0
2014-Aug-24 19:23N 33°41' W 118°09'0 0.1
2014-Aug-24 18:32N 33°41' W 118°09'0 0.2
2014-Aug-24 17:29N 33°41' W 118°09'0 0.2
2014-Aug-24 16:32N 33°41' W 118°09'1 1.3
2014-Aug-24 15:33N 33°40' W 118°09'6 5.7
2014-Aug-24 14:33N 33°34' W 118°09'8 7.9
2014-Aug-24 13:33N 33°27' W 118°06'8 7.8
2014-Aug-24 12:33N 33°20' W 118°03'9 9.2
2014-Aug-24 11:33N 33°11' W 117°58'9 8.7
2014-Aug-24 10:33N 33°02' W 117°58'9 9.0
2014-Aug-24 09:33N 32°54' W 118°03'9 9.2
2014-Aug-24 08:33N 32°46' W 118°08'9 9.3
2014-Aug-24 07:33N 32°38' W 118°14'9 9.2
2014-Aug-24 06:33N 32°30' W 118°19'9 9.4
2014-Aug-24 05:33N 32°22' W 118°24'9 9.5
2014-Aug-24 04:33N 32°14' W 118°30'9 9.3
2014-Aug-24 03:33N 32°06' W 118°36'10 9.5
2014-Aug-24 02:33N 31°58' W 118°41'9 9.4
2014-Aug-24 01:33N 31°49' W 118°47'1110.7
2014-Aug-24 00:33N 31°40' W 118°53'1110.7
2014-Aug-23 23:33N 31°31' W 119°00'2 1.8
2014-Aug-23 22:33N 31°30' W 119°01'1 1.1
2014-Aug-23 21:33N 31°29' W 119°01'1 1.2
2014-Aug-23 20:33N 31°27' W 119°02'1 1.0
2014-Aug-23 19:33N 31°27' W 119°02'23 1.4
2014-Aug-23 03:33N 31°46' W 119°16'2 1.6
2014-Aug-23 02:33N 31°48' W 119°17'1 1.4
2014-Aug-23 01:33N 31°49' W 119°18'1 1.2
2014-Aug-23 00:33N 31°50' W 119°19'1 1.1
2014-Aug-22 23:33N 31°51' W 119°20'3 3.2
2014-Aug-22 22:33N 31°54' W 119°21'5 5.2
2014-Aug-22 21:33N 31°58' W 119°24'4 3.9
2014-Aug-22 20:33N 32°02' W 119°25'1 0.9
2014-Aug-22 19:33N 32°02' W 119°26'1 1.0
2014-Aug-22 18:32N 32°01' W 119°26'1 0.6
2014-Aug-22 17:33N 32°00' W 119°25'1 0.9
2014-Aug-22 16:33N 31°60' W 119°26'1 1.0
2014-Aug-22 15:27N 31°58' W 119°25'0 0.4
2014-Aug-22 14:33N 31°58' W 119°25'0 0.3
2014-Aug-22 13:33N 31°58' W 119°25'0 0.2
2014-Aug-22 12:33N 31°58' W 119°25'0 0.2
2014-Aug-22 11:33N 31°58' W 119°25'0 0.2
2014-Aug-22 10:33N 31°58' W 119°25'1 0.5
2014-Aug-22 09:14N 31°58' W 119°25'0 0.4
2014-Aug-22 08:31N 31°58' W 119°26'0 0.5
2014-Aug-22 07:33N 31°58' W 119°26'1 0.5
2014-Aug-22 06:33N 31°59' W 119°27'0 0.3
2014-Aug-22 05:32N 31°59' W 119°27'0 0.4
2014-Aug-22 04:31N 31°59' W 119°28'1 0.5
2014-Aug-22 03:33N 31°59' W 119°28'0 0.5
2014-Aug-22 02:30N 31°59' W 119°29'1 0.5
2014-Aug-22 00:25N 31°60' W 119°30'1 0.6
2014-Aug-21 23:18N 31°60' W 119°31'8 2.6
2014-Aug-21 20:23N 31°57' W 119°22'1211.6
2014-Aug-21 19:21N 31°52' W 119°10'1 0.7
2014-Aug-21 17:30N 31°52' W 119°08'0 0.2
2014-Aug-21 16:14N 31°51' W 119°08'0 0.1
2014-Aug-21 15:13N 31°51' W 119°08'0 0.2
2014-Aug-21 14:33N 31°51' W 119°08'3 0.2
2014-Aug-21 00:18N 31°52' W 119°12'  

Dump ship's entire track history